Ogunquit, ME

11:59 AM EDT on October 30, 2014 (GMT -0400)
Skyhaven | Change Station
CLOSE
Current Station
Airport
Location: Rochester,
Elevation: 322 ft
Nearby Weather Stations

Elev 322 ft 43.28 °N, 70.92 °W | Updated 8 minutes ago

Overcast
Overcast
55 °F
Feels Like 55 °F
N
13
Wind Variable Wind from NW
Gusts 20 mph

Today
High -- | Low -- °F
--% Chance of Precip.
Yesterday
High -- | Low -- °F
Precip. -- in
7:14 AM 5:36 PM
Waxing Crescent, 45% visible
Pressure 29.90 in
Visibility 10.0 miles
Clouds Few 8000 ft
Dew Point 40 °F
Humidity 57%
Rainfall 0.00 in
Snow Depth Not available.
UV 3 out of 12
Pollen .60 out of 12
Air Quality Not available.
Flu Activity Not available.
METAR KDAW 301551Z AUTO 31011G17KT 10SM FEW080 13/04 A2990 RMK AO2 SLP123 T01280044

More Conditions Fewer Conditions

Pressure 29.90 in
Visibility 10.0 miles
Clouds Few 8000 ft
Dew Point 40 °F
Humidity 57%
Rainfall 0.00 in
Snow Depth Not available.
UV 3 out of 12
Pollen .60 out of 12
Air Quality Not available.
Flu Activity Not available.
METAR KDAW 301551Z AUTO 31011G17KT 10SM FEW080 13/04 A2990 RMK AO2 SLP123 T01280044

More Conditions Fewer Conditions

10-Day Weather Forecast

Almanac

Astronomy

Oct. 30, 2014 Rise Set
Actual Time
Civil Twilight
Nautical Twilight
Astronomical Twilight
Moon
Length of Visible Light
Length of Day
Tomorrow will be .
, % of the Moon is Illuminated

Today's Extremes

State Highs State Lows

Community

WunderPhotos

Upload Photos

1,766,389 photos uploaded!

WunderBlogs® & News

Nearby

Air Quality

  Air Quality AQ Index Pollutant
Not available.

Snow Depth

Station Depth Elevation

Earthquake Activity

City Distance Mag. Time & Date
Minimum magnitude displayed is 2.5.

Coastal Water Temperatures

Place Temperature

Nearby Weather Stations